Weather History for PASD - December, 2013

Change the Weather History Date:

Thursday, December 5, 2013

  Actual Average Record
Temperature  
Mean Temperature 48 °F -  
Max Temperature 51 °F 34 °F - (-1)
Min Temperature 44 °F 28 °F - (-1)
Degree Days  
Heating Degree Days 18    
Moisture  
Dew Point 46 °F    
Average Humidity 99    
Maximum Humidity 100    
Minimum Humidity 93    
Precipitation  
Precipitation 0.00 in - - ()
Sea Level Pressure  
Sea Level Pressure 30.01 in    
Wind  
Wind Speed 10 mph (East)    
Max Wind Speed 17 mph    
Max Gust Speed 24 mph    
Visibility 6 miles    
Events      
Averages and records for this station are not official NWS values.
T = Trace of Precipitation, MM = Missing Value Source: NWS Daily Summary

Daily Weather History Graph

Daily Weather History Graph

Search for Another Location

Airport or City:

Trip Planner

Search our weather history database for the weather conditions in past years. The results will help you decide how hot, cold, wet, or windy it might be!

Date:

Astronomy

Dec. 05, 2013 Rise Set
Actual Time 9:51 AM AKST 5:13 PM AKST
Civil Twilight 9:06 AM AKST 5:58 PM AKST
Nautical Twilight 8:19 AM AKST 6:46 PM AKST
Astronomical Twilight 7:34 AM AKST 7:30 PM AKST
Moon 12:04 PM AKST (12/5) 9:08 PM AKST (12/5)
Length of Visible Light 8h 52m
Length of Day
7h 22m
Waxing Crescent, 12% of the Moon is Illuminated
Dec 5
Waxing Crescent
Dec 9
First Quarter
Dec 17
Full
Dec 25
Last Quarter
Jan 1
New

Hourly Weather History & Observations

Time (AKST) Temp. Windchill Dew Point Humidity Pressure Visibility Wind Dir Wind Speed Gust Speed Precip Events Conditions
12:16 AM 44.6 °F 37.4 °F 44.6 °F 100% 29.98 in 1.8 mi SSE 16.1 mph 20.7 mph N/A   Overcast
12:36 AM 44.6 °F 37.4 °F 44.6 °F 100% 29.99 in 1.5 mi SSE 16.1 mph 24.2 mph N/A   Overcast
12:56 AM 44.6 °F 38.4 °F 44.6 °F 100% 29.99 in 2.0 mi SSE 12.7 mph - N/A   Overcast
1:16 AM 44.6 °F 37.2 °F 44.6 °F 100% 30.00 in 1.8 mi SSE 17.3 mph 23.0 mph N/A   Overcast
1:36 AM 44.6 °F 37.2 °F 44.6 °F 100% 30.00 in 2.5 mi SSE 17.3 mph - N/A   Overcast
1:56 AM 44.6 °F 37.8 °F 44.6 °F 100% 30.00 in 7.0 mi SSE 15.0 mph - N/A   Overcast
2:56 AM 44.6 °F 38.4 °F 44.6 °F 100% 30.01 in 1.8 mi SSE 12.7 mph - N/A   Overcast
3:16 AM 44.6 °F 37.2 °F 44.6 °F 100% 30.01 in 1.8 mi SSE 17.3 mph - N/A   Overcast
3:36 AM 44.6 °F 38.4 °F 44.6 °F 100% 30.02 in 1.5 mi SSE 12.7 mph - N/A   Overcast
3:56 AM 44.6 °F 37.4 °F 44.6 °F 100% 30.02 in 1.8 mi SSE 16.1 mph 20.7 mph N/A   Overcast
4:16 AM 44.6 °F 38.1 °F 44.6 °F 100% 30.02 in 2.5 mi SSE 13.8 mph - N/A   Overcast
4:36 AM 44.6 °F 37.8 °F 44.6 °F 100% 30.03 in 3.0 mi SSE 15.0 mph - N/A   Overcast
4:56 AM 44.6 °F 37.8 °F 44.6 °F 100% 30.03 in 1.8 mi SSE 15.0 mph 20.7 mph N/A   Overcast
5:16 AM 44.6 °F 38.1 °F 44.6 °F 100% 30.02 in 2.5 mi SSE 13.8 mph 21.9 mph N/A   Overcast
5:36 AM 44.6 °F 38.4 °F 44.6 °F 100% 30.03 in 6.0 mi SSE 12.7 mph 18.4 mph N/A   Overcast
5:56 AM 44.6 °F 38.4 °F 44.6 °F 100% 30.02 in 4.0 mi SSE 12.7 mph - N/A   Overcast
6:16 AM 46.4 °F 40.4 °F 44.6 °F 93% 30.02 in 10.0 mi SSE 13.8 mph 19.6 mph N/A   Overcast
6:36 AM 46.4 °F 41.5 °F 44.6 °F 93% 30.02 in 10.0 mi SSE 10.4 mph - N/A   Overcast
6:56 AM 46.4 °F 45.2 °F 44.6 °F 93% 30.02 in 10.0 mi ENE 3.5 mph - N/A   Overcast
7:16 AM 46.4 °F 44.3 °F 44.6 °F 93% 30.03 in 10.0 mi South 4.6 mph - N/A   Overcast
7:36 AM 46.4 °F 43.5 °F 46.4 °F 100% 30.04 in 10.0 mi SE 5.8 mph - N/A   Overcast
7:56 AM 46.4 °F - 46.4 °F 100% 30.06 in 10.0 mi Calm Calm - N/A   Overcast
8:16 AM 46.4 °F - 44.6 °F 93% 30.05 in 10.0 mi Calm Calm - N/A   Overcast
8:36 AM 46.4 °F 45.2 °F 44.6 °F 93% 30.06 in 10.0 mi SE 3.5 mph - N/A   Overcast
8:56 AM 46.4 °F - 44.6 °F 93% 30.07 in 10.0 mi Calm Calm - N/A   Overcast
9:16 AM 46.4 °F - 44.6 °F 93% 30.07 in 10.0 mi Calm Calm - N/A   Overcast
9:36 AM 46.4 °F 45.2 °F 46.4 °F 100% 30.07 in 10.0 mi NE 3.5 mph - N/A   Overcast
9:56 AM 46.4 °F - 46.4 °F 100% 30.08 in 10.0 mi Calm Calm - N/A   Overcast
10:16 AM 46.4 °F 45.2 °F 46.4 °F 100% 30.09 in 3.0 mi NE 3.5 mph - N/A   Overcast
10:36 AM 44.6 °F - 44.6 °F 100% 30.09 in 5.0 mi Calm Calm - N/A   Overcast
10:56 AM 46.4 °F 44.3 °F 46.4 °F 100% 30.08 in 5.0 mi NNE 4.6 mph - N/A   Overcast
11:16 AM 44.6 °F 40.2 °F 44.6 °F 100% 30.08 in 6.0 mi NE 8.1 mph - N/A   Overcast
11:36 AM 44.6 °F 39.7 °F 44.6 °F 100% 30.08 in 6.0 mi NNE 9.2 mph - N/A   Overcast
11:56 AM 44.6 °F 43.1 °F 44.6 °F 100% 30.09 in 3.0 mi NE 3.5 mph - N/A   Overcast
12:16 PM 44.6 °F 39.7 °F 44.6 °F 100% 30.08 in 3.0 mi NNE 9.2 mph - N/A   Overcast
12:36 PM 44.6 °F 41.4 °F 44.6 °F 100% 30.07 in 5.0 mi ENE 5.8 mph - N/A   Overcast
12:56 PM 44.6 °F 41.4 °F 44.6 °F 100% 30.08 in 6.0 mi ESE 5.8 mph - N/A   Overcast
1:16 PM 44.6 °F 42.2 °F 44.6 °F 100% 30.06 in 6.0 mi East 4.6 mph - N/A   Overcast
1:36 PM 44.6 °F - 44.6 °F 100% 30.07 in 5.0 mi Calm Calm - N/A   Overcast
1:56 PM 46.4 °F - 46.4 °F 100% 30.06 in 5.0 mi Calm Calm - N/A   Overcast
2:16 PM 46.4 °F 44.3 °F 46.4 °F 100% 30.05 in 5.0 mi NNE 4.6 mph - N/A   Overcast
2:36 PM 44.6 °F 41.4 °F 44.6 °F 100% 30.05 in 5.0 mi NE 5.8 mph - N/A   Overcast
2:56 PM 46.4 °F 45.2 °F 46.4 °F 100% 30.04 in 4.0 mi NE 3.5 mph - N/A   Overcast
3:16 PM 44.6 °F 40.2 °F 44.6 °F 100% 30.03 in 5.0 mi NNE 8.1 mph - N/A   Overcast
3:36 PM 44.6 °F 41.4 °F 44.6 °F 100% 30.03 in 4.0 mi NE 5.8 mph - N/A   Overcast
3:56 PM 44.6 °F - 44.6 °F 100% 30.03 in 10.0 mi Calm Calm - N/A   Overcast
4:16 PM 44.6 °F - 44.6 °F 100% 30.02 in 10.0 mi Calm Calm - N/A   Overcast
4:36 PM 46.4 °F 42.9 °F 46.4 °F 100% 30.01 in 9.0 mi NE 6.9 mph 16.1 mph N/A   Overcast
4:56 PM 44.6 °F 40.7 °F 44.6 °F 100% 30.00 in 6.0 mi NE 6.9 mph - N/A   Overcast
5:16 PM 44.6 °F 39.7 °F 44.6 °F 100% 29.99 in 6.0 mi NE 9.2 mph 18.4 mph N/A   Overcast
5:36 PM 44.6 °F 40.7 °F 44.6 °F 100% 29.99 in 6.0 mi NNE 6.9 mph 16.1 mph N/A   Overcast
5:56 PM 44.6 °F 39.2 °F 44.6 °F 100% 29.99 in 6.0 mi NE 10.4 mph 16.1 mph N/A   Overcast
6:16 PM 44.6 °F 40.7 °F 44.6 °F 100% 29.98 in 6.0 mi NE 6.9 mph 18.4 mph N/A   Overcast
6:36 PM 46.4 °F 42.4 °F 46.4 °F 100% 29.97 in 6.0 mi NE 8.1 mph - N/A   Overcast
6:56 PM 46.4 °F 42.9 °F 46.4 °F 100% 29.98 in 6.0 mi NE 6.9 mph - N/A   Overcast
7:16 PM 46.4 °F 42.4 °F 46.4 °F 100% 29.96 in 5.0 mi NE 8.1 mph - N/A   Overcast
7:36 PM 44.6 °F 40.2 °F 44.6 °F 100% 29.95 in 10.0 mi NE 8.1 mph 16.1 mph N/A   Overcast
7:56 PM 46.4 °F 41.5 °F 46.4 °F 100% 29.94 in 10.0 mi NE 10.4 mph 16.1 mph N/A   Overcast
8:16 PM 46.4 °F 42.4 °F 46.4 °F 100% 29.94 in 7.0 mi NE 8.1 mph 17.3 mph N/A   Overcast
8:36 PM 48.2 °F - 48.2 °F 100% 29.94 in 4.0 mi ENE 9.2 mph 16.1 mph N/A   Overcast
8:56 PM 48.2 °F - 48.2 °F 100% 29.93 in 4.0 mi NE 5.8 mph - N/A   Overcast
9:16 PM 48.2 °F - 46.4 °F 93% 29.93 in 9.0 mi ENE 5.8 mph - N/A   Overcast
9:36 PM 48.2 °F - 48.2 °F 100% 29.92 in 10.0 mi NE 6.9 mph - N/A   Overcast
9:56 PM 48.2 °F - 48.2 °F 100% 29.92 in 10.0 mi ENE 4.6 mph - N/A   Overcast
10:16 PM 50.0 °F - 48.2 °F 94% 29.93 in 10.0 mi SE 9.2 mph - N/A   Overcast
10:36 PM 51.8 °F - 50.0 °F 94% 29.92 in 5.0 mi ESE 6.9 mph - N/A   Overcast
10:56 PM 51.8 °F - 51.8 °F 100% 29.92 in 7.0 mi SE 11.5 mph 17.3 mph N/A   Overcast
11:16 PM 51.8 °F - 51.8 °F 100% 29.92 in 5.0 mi SSE 12.7 mph 20.7 mph N/A   Overcast
11:36 PM 51.8 °F - 51.8 °F 100% 29.93 in 9.0 mi SE 11.5 mph 19.6 mph N/A   Overcast
11:56 PM 51.8 °F - 50.0 °F 94% 29.92 in 9.0 mi SSE 9.2 mph 20.7 mph N/A   Overcast